Starkville, MS (39759)

2:11 PM CDT on October 01, 2016 (GMT -0500)
Bryan | | Change Station

Elev 331 ft 33.43 °N, 88.85 °W | Updated -222 second ago

Scattered Clouds
Scattered Clouds
77 °F
Feels Like 77 °F
N
5
Wind Variable Wind from North

Today
High -- | Low -- °F
--% Chance of Precip.
Yesterday
High -- | Low -- °F
Precip. -- in
Pressure 30.06 in
Visibility 10.0 miles
Clouds Scattered Clouds 5500 ft
Scattered Clouds 10000 ft
Dew Point 52 °F
Humidity 41%
Rainfall 0.00 in
Snow Depth Not available.
6:50 AM 6:39 PM
New Moon, 1% visible
METAR KSTF 011915Z AUTO 36004KT 10SM SCT055 SCT100 25/11 A3006 RMK AO2
Pressure 30.06 in
Visibility 10.0 miles
Clouds Scattered Clouds 5500 ft
Scattered Clouds 10000 ft
Dew Point 52 °F
Humidity 41%
Rainfall 0.00 in
Snow Depth Not available.
6:50 AM 6:39 PM
New Moon, 1% visible
METAR KSTF 011915Z AUTO 36004KT 10SM SCT055 SCT100 25/11 A3006 RMK AO2

10-Day Weather Forecast

Almanac

Astronomy

Oct. 01, 2016 Rise Set
Actual Time
Civil Twilight
Nautical Twilight
Astronomical Twilight
Moon
Length of Visible Light
Length of Day
Tomorrow will be .
, % of the Moon is Illuminated

Today's Extremes

State Highs State Lows

Community

WunderPhotos

Upload Photos

1,942,999 photos uploaded!

WunderBlog® & News

Nearby

Air Quality

  Air Quality AQ Index Pollutant
Not available.

Snow Depth

Station Depth Elevation

Earthquake Activity

City Distance Mag. Time & Date
Minimum magnitude displayed is 2.5.

Coastal Water Temperatures

Place Temperature

Stations

Nearby Weather Stations

Station Location Temp. Windchill Dew Point Humidity Wind Precip. Elev Updated Type
                   

Watches & Warnings

There are currently no watches in effect.